sensor_id;sensor_type;location;lat;lon;timestamp;pressure;altitude;pressure_sealevel;temperature;humidity
73338;BME280;61575;49.908;35.556;2022-09-13T00:00:52;98216.22;;;13.47;80.46
73338;BME280;61575;49.908;35.556;2022-09-13T00:03:54;98211.88;;;13.39;80.74
73338;BME280;61575;49.908;35.556;2022-09-13T00:06:56;98217.50;;;13.31;81.28
73338;BME280;61575;49.908;35.556;2022-09-13T00:09:58;98225.59;;;13.31;80.87
73338;BME280;61575;49.908;35.556;2022-09-13T00:13:00;98225.78;;;13.29;80.91
73338;BME280;61575;49.908;35.556;2022-09-13T00:16:02;98220.41;;;13.29;80.70
73338;BME280;61575;49.908;35.556;2022-09-13T00:19:05;98214.41;;;13.27;80.76
73338;BME280;61575;49.908;35.556;2022-09-13T00:22:08;98213.38;;;13.28;80.71
73338;BME280;61575;49.908;35.556;2022-09-13T00:25:11;98212.94;;;13.32;80.40
73338;BME280;61575;49.908;35.556;2022-09-13T00:28:13;98203.25;;;13.24;80.46
73338;BME280;61575;49.908;35.556;2022-09-13T00:31:15;98212.78;;;13.20;80.52
73338;BME280;61575;49.908;35.556;2022-09-13T00:34:17;98203.28;;;13.17;80.58
73338;BME280;61575;49.908;35.556;2022-09-13T00:37:18;98198.06;;;13.16;80.44
73338;BME280;61575;49.908;35.556;2022-09-13T00:40:20;98204.47;;;13.15;80.40
73338;BME280;61575;49.908;35.556;2022-09-13T00:46:44;98201.41;;;13.18;80.25
73338;BME280;61575;49.908;35.556;2022-09-13T00:49:50;98195.81;;;13.19;80.04
73338;BME280;61575;49.908;35.556;2022-09-13T00:53:02;98182.78;;;13.16;80.31
73338;BME280;61575;49.908;35.556;2022-09-13T00:56:16;98183.16;;;13.13;80.01
73338;BME280;61575;49.908;35.556;2022-09-13T00:59:42;98184.00;;;13.07;80.29
73338;BME280;61575;49.908;35.556;2022-09-13T01:02:47;98180.09;;;13.03;80.46
73338;BME280;61575;49.908;35.556;2022-09-13T01:05:54;98187.97;;;12.98;80.02
73338;BME280;61575;49.908;35.556;2022-09-13T01:09:00;98181.75;;;12.97;79.96
73338;BME280;61575;49.908;35.556;2022-09-13T01:12:16;98190.69;;;12.91;80.01
73338;BME280;61575;49.908;35.556;2022-09-13T01:15:21;98184.69;;;12.89;80.13
73338;BME280;61575;49.908;35.556;2022-09-13T01:18:23;98178.47;;;12.89;80.19
73338;BME280;61575;49.908;35.556;2022-09-13T01:21:41;98177.03;;;12.86;80.09
73338;BME280;61575;49.908;35.556;2022-09-13T01:31:37;98167.72;;;12.89;80.04
73338;BME280;61575;49.908;35.556;2022-09-13T01:45:10;98169.38;;;12.90;79.77
73338;BME280;61575;49.908;35.556;2022-09-13T01:51:55;98161.09;;;12.85;79.84
73338;BME280;61575;49.908;35.556;2022-09-13T01:55:13;98165.66;;;12.84;79.94
73338;BME280;61575;49.908;35.556;2022-09-13T01:58:39;98157.81;;;12.83;79.94
73338;BME280;61575;49.908;35.556;2022-09-13T02:02:04;98159.88;;;12.81;80.13
73338;BME280;61575;49.908;35.556;2022-09-13T02:05:14;98152.84;;;12.80;79.93
73338;BME280;61575;49.908;35.556;2022-09-13T02:08:33;98153.06;;;12.78;80.00
73338;BME280;61575;49.908;35.556;2022-09-13T02:11:40;98155.53;;;12.80;79.91
73338;BME280;61575;49.908;35.556;2022-09-13T02:14:47;98147.06;;;12.70;80.29
73338;BME280;61575;49.908;35.556;2022-09-13T02:18:01;98142.53;;;12.63;80.57
73338;BME280;61575;49.908;35.556;2022-09-13T02:21:15;98140.69;;;12.57;80.69
73338;BME280;61575;49.908;35.556;2022-09-13T02:24:24;98139.03;;;12.56;80.67
73338;BME280;61575;49.908;35.556;2022-09-13T02:27:32;98129.09;;;12.57;80.86
73338;BME280;61575;49.908;35.556;2022-09-13T02:30:37;98124.34;;;12.52;81.01
73338;BME280;61575;49.908;35.556;2022-09-13T02:33:44;98123.75;;;12.50;81.19
73338;BME280;61575;49.908;35.556;2022-09-13T02:36:51;98126.00;;;12.53;81.03
73338;BME280;61575;49.908;35.556;2022-09-13T02:40:03;98124.97;;;12.54;80.89
73338;BME280;61575;49.908;35.556;2022-09-13T02:43:13;98120.22;;;12.50;81.26
73338;BME280;61575;49.908;35.556;2022-09-13T02:46:28;98119.59;;;12.48;81.24
73338;BME280;61575;49.908;35.556;2022-09-13T02:59:25;98110.13;;;12.32;82.15
73338;BME280;61575;49.908;35.556;2022-09-13T03:02:31;98102.25;;;12.30;82.07
73338;BME280;61575;49.908;35.556;2022-09-13T03:05:34;98112.19;;;12.30;82.15
73338;BME280;61575;49.908;35.556;2022-09-13T03:08:36;98108.47;;;12.31;82.08
73338;BME280;61575;49.908;35.556;2022-09-13T03:14:53;98095.22;;;12.29;82.05
73338;BME280;61575;49.908;35.556;2022-09-13T03:21:40;98084.28;;;12.31;82.36
73338;BME280;61575;49.908;35.556;2022-09-13T03:31:36;98084.47;;;12.29;82.67
73338;BME280;61575;49.908;35.556;2022-09-13T03:38:26;98066.94;;;12.20;83.03
73338;BME280;61575;49.908;35.556;2022-09-13T03:41:32;98062.38;;;12.21;82.70
73338;BME280;61575;49.908;35.556;2022-09-13T03:44:36;98061.97;;;12.17;83.04
73338;BME280;61575;49.908;35.556;2022-09-13T03:47:42;98059.28;;;12.24;83.00
73338;BME280;61575;49.908;35.556;2022-09-13T03:50:47;98059.06;;;12.19;82.96
73338;BME280;61575;49.908;35.556;2022-09-13T03:53:55;98049.56;;;12.16;83.12
73338;BME280;61575;49.908;35.556;2022-09-13T03:57:16;98052.88;;;12.18;82.99
73338;BME280;61575;49.908;35.556;2022-09-13T04:00:21;98045.22;;;12.22;83.01
73338;BME280;61575;49.908;35.556;2022-09-13T04:03:23;98051.84;;;12.19;82.77
73338;BME280;61575;49.908;35.556;2022-09-13T04:06:25;98054.13;;;12.22;82.83
73338;BME280;61575;49.908;35.556;2022-09-13T04:09:27;98056.59;;;12.24;82.74
73338;BME280;61575;49.908;35.556;2022-09-13T04:12:29;98070.03;;;12.24;82.54
73338;BME280;61575;49.908;35.556;2022-09-13T04:15:31;98071.47;;;12.20;82.79
73338;BME280;61575;49.908;35.556;2022-09-13T04:18:34;98071.25;;;12.28;82.44
73338;BME280;61575;49.908;35.556;2022-09-13T04:21:35;98064.63;;;12.30;82.09
73338;BME280;61575;49.908;35.556;2022-09-13T04:24:38;98068.56;;;12.35;82.27
73338;BME280;61575;49.908;35.556;2022-09-13T04:27:40;98060.50;;;12.35;81.84
73338;BME280;61575;49.908;35.556;2022-09-13T04:30:47;98062.97;;;12.36;81.38
73338;BME280;61575;49.908;35.556;2022-09-13T04:33:49;98064.22;;;12.40;81.26
73338;BME280;61575;49.908;35.556;2022-09-13T04:36:52;98065.25;;;12.39;81.07
73338;BME280;61575;49.908;35.556;2022-09-13T04:39:54;98060.88;;;12.45;80.95
73338;BME280;61575;49.908;35.556;2022-09-13T04:42:56;98061.72;;;12.39;80.97
73338;BME280;61575;49.908;35.556;2022-09-13T04:46:00;98056.38;;;12.32;80.72
73338;BME280;61575;49.908;35.556;2022-09-13T04:49:03;98057.63;;;12.29;80.82
73338;BME280;61575;49.908;35.556;2022-09-13T04:52:05;98061.75;;;12.32;80.81
73338;BME280;61575;49.908;35.556;2022-09-13T04:55:07;98058.63;;;12.35;80.79
73338;BME280;61575;49.908;35.556;2022-09-13T04:58:09;98057.81;;;12.41;80.82
73338;BME280;61575;49.908;35.556;2022-09-13T05:01:11;98060.88;;;12.51;80.79
73338;BME280;61575;49.908;35.556;2022-09-13T05:04:13;98051.38;;;12.49;80.61
73338;BME280;61575;49.908;35.556;2022-09-13T05:07:15;98047.88;;;12.42;80.92
73338;BME280;61575;49.908;35.556;2022-09-13T05:10:18;98054.69;;;12.44;80.95
73338;BME280;61575;49.908;35.556;2022-09-13T05:13:20;98055.50;;;12.51;80.34
73338;BME280;61575;49.908;35.556;2022-09-13T05:16:24;98051.56;;;12.54;80.46
73338;BME280;61575;49.908;35.556;2022-09-13T05:19:26;98056.28;;;12.65;80.19
73338;BME280;61575;49.908;35.556;2022-09-13T05:22:28;98047.59;;;12.70;79.74
73338;BME280;61575;49.908;35.556;2022-09-13T05:25:30;98057.94;;;12.66;79.83
73338;BME280;61575;49.908;35.556;2022-09-13T05:28:34;98060.59;;;12.73;79.60
73338;BME280;61575;49.908;35.556;2022-09-13T05:31:38;98056.47;;;12.70;79.58
73338;BME280;61575;49.908;35.556;2022-09-13T05:34:40;98048.63;;;12.69;79.64
73338;BME280;61575;49.908;35.556;2022-09-13T05:37:42;98050.25;;;12.76;79.61
73338;BME280;61575;49.908;35.556;2022-09-13T05:40:44;98058.75;;;12.73;79.20
73338;BME280;61575;49.908;35.556;2022-09-13T05:43:47;98067.06;;;12.58;79.23
73338;BME280;61575;49.908;35.556;2022-09-13T05:46:49;98067.63;;;12.74;78.88
73338;BME280;61575;49.908;35.556;2022-09-13T05:49:50;98076.09;;;12.77;78.77
73338;BME280;61575;49.908;35.556;2022-09-13T05:53:10;98067.41;;;12.82;78.37
73338;BME280;61575;49.908;35.556;2022-09-13T05:56:17;98078.97;;;12.89;78.41
73338;BME280;61575;49.908;35.556;2022-09-13T05:59:20;98087.25;;;12.87;78.46
73338;BME280;61575;49.908;35.556;2022-09-13T06:02:21;98087.66;;;12.84;78.23
73338;BME280;61575;49.908;35.556;2022-09-13T06:05:24;98090.56;;;12.83;78.49
73338;BME280;61575;49.908;35.556;2022-09-13T06:08:33;98093.22;;;12.89;78.07
73338;BME280;61575;49.908;35.556;2022-09-13T06:11:35;98098.38;;;12.97;77.83
73338;BME280;61575;49.908;35.556;2022-09-13T06:14:37;98101.69;;;13.00;77.71
73338;BME280;61575;49.908;35.556;2022-09-13T06:17:39;98093.56;;;13.13;77.27
73338;BME280;61575;49.908;35.556;2022-09-13T06:20:41;98090.84;;;13.26;76.82
73338;BME280;61575;49.908;35.556;2022-09-13T06:23:48;98090.97;;;13.38;76.52
73338;BME280;61575;49.908;35.556;2022-09-13T06:26:51;98097.56;;;13.42;76.25
73338;BME280;61575;49.908;35.556;2022-09-13T06:29:54;98092.63;;;13.39;75.94
73338;BME280;61575;49.908;35.556;2022-09-13T06:32:56;98098.63;;;13.41;75.52
73338;BME280;61575;49.908;35.556;2022-09-13T06:36:03;98096.53;;;13.43;75.48
73338;BME280;61575;49.908;35.556;2022-09-13T06:39:06;98098.16;;;13.50;75.12
73338;BME280;61575;49.908;35.556;2022-09-13T06:42:08;98092.53;;;13.52;74.88
73338;BME280;61575;49.908;35.556;2022-09-13T06:45:13;98092.06;;;13.61;74.57
73338;BME280;61575;49.908;35.556;2022-09-13T06:48:15;98095.97;;;13.66;74.41
73338;BME280;61575;49.908;35.556;2022-09-13T06:51:21;98089.69;;;13.47;74.38
73338;BME280;61575;49.908;35.556;2022-09-13T06:54:23;98098.06;;;13.64;74.12
73338;BME280;61575;49.908;35.556;2022-09-13T06:57:25;98103.59;;;13.75;73.89
73338;BME280;61575;49.908;35.556;2022-09-13T07:00:30;98112.09;;;13.72;73.77
73338;BME280;61575;49.908;35.556;2022-09-13T07:03:32;98101.38;;;13.66;73.77
73338;BME280;61575;49.908;35.556;2022-09-13T07:06:36;98101.38;;;13.66;73.76
73338;BME280;61575;49.908;35.556;2022-09-13T07:09:38;98092.19;;;13.73;73.72
73338;BME280;61575;49.908;35.556;2022-09-13T07:12:40;98094.19;;;13.84;73.42
73338;BME280;61575;49.908;35.556;2022-09-13T07:15:42;98093.50;;;13.96;73.28
73338;BME280;61575;49.908;35.556;2022-09-13T07:19:00;98099.66;;;14.03;72.79
73338;BME280;61575;49.908;35.556;2022-09-13T07:22:02;98093.88;;;13.99;72.33
73338;BME280;61575;49.908;35.556;2022-09-13T07:25:06;98099.38;;;14.11;72.39
73338;BME280;61575;49.908;35.556;2022-09-13T07:28:07;98088.31;;;14.19;72.11
73338;BME280;61575;49.908;35.556;2022-09-13T07:31:21;98086.78;;;14.30;71.77
73338;BME280;61575;49.908;35.556;2022-09-13T07:34:24;98083.09;;;14.24;71.55
73338;BME280;61575;49.908;35.556;2022-09-13T07:37:26;98085.78;;;14.24;71.40
73338;BME280;61575;49.908;35.556;2022-09-13T07:40:28;98092.16;;;14.30;71.23
73338;BME280;61575;49.908;35.556;2022-09-13T07:43:31;98078.84;;;14.35;71.18
73338;BME280;61575;49.908;35.556;2022-09-13T07:46:35;98082.09;;;14.43;70.72
73338;BME280;61575;49.908;35.556;2022-09-13T07:49:42;98083.75;;;14.44;70.58
73338;BME280;61575;49.908;35.556;2022-09-13T07:52:44;98081.66;;;14.46;70.48
73338;BME280;61575;49.908;35.556;2022-09-13T07:55:45;98073.44;;;14.35;70.74
73338;BME280;61575;49.908;35.556;2022-09-13T07:58:48;98070.06;;;14.46;70.57
73338;BME280;61575;49.908;35.556;2022-09-13T08:01:50;98071.03;;;14.51;70.21
73338;BME280;61575;49.908;35.556;2022-09-13T08:04:53;98063.31;;;14.55;70.00
73338;BME280;61575;49.908;35.556;2022-09-13T08:07:55;98068.19;;;14.65;69.61
73338;BME280;61575;49.908;35.556;2022-09-13T08:10:57;98058.16;;;14.90;69.42
73338;BME280;61575;49.908;35.556;2022-09-13T08:14:01;98069.56;;;15.22;68.54
73338;BME280;61575;49.908;35.556;2022-09-13T08:17:03;98059.09;;;15.44;67.51
73338;BME280;61575;49.908;35.556;2022-09-13T08:20:06;98058.94;;;15.57;66.86
73338;BME280;61575;49.908;35.556;2022-09-13T08:23:11;98058.94;;;15.57;66.73
73338;BME280;61575;49.908;35.556;2022-09-13T08:26:14;98056.84;;;15.59;66.63
73338;BME280;61575;49.908;35.556;2022-09-13T08:29:17;98060.47;;;15.35;65.98
73338;BME280;61575;49.908;35.556;2022-09-13T08:32:19;98049.41;;;15.25;66.44
73338;BME280;61575;49.908;35.556;2022-09-13T08:35:21;98055.03;;;15.53;66.63
73338;BME280;61575;49.908;35.556;2022-09-13T08:38:23;98061.66;;;15.39;66.19
73338;BME280;61575;49.908;35.556;2022-09-13T08:44:53;98055.47;;;15.50;65.96
73338;BME280;61575;49.908;35.556;2022-09-13T08:48:01;98055.78;;;15.60;66.07
73338;BME280;61575;49.908;35.556;2022-09-13T08:51:22;98066.94;;;15.34;66.30
73338;BME280;61575;49.908;35.556;2022-09-13T08:54:28;98058.34;;;15.07;66.50
73338;BME280;61575;49.908;35.556;2022-09-13T09:04:49;98052.88;;;15.13;66.86
73338;BME280;61575;49.908;35.556;2022-09-13T09:11:07;98061.00;;;15.55;66.68
73338;BME280;61575;49.908;35.556;2022-09-13T09:14:19;98056.34;;;15.62;66.31
73338;BME280;61575;49.908;35.556;2022-09-13T09:17:30;98062.91;;;15.25;66.30
73338;BME280;61575;49.908;35.556;2022-09-13T09:20:43;98057.63;;;15.30;66.48
73338;BME280;61575;49.908;35.556;2022-09-13T09:23:50;98053.06;;;15.60;66.02
73338;BME280;61575;49.908;35.556;2022-09-13T09:26:55;98054.16;;;15.82;65.66
73338;BME280;61575;49.908;35.556;2022-09-13T09:29:58;98058.25;;;15.73;65.16
73338;BME280;61575;49.908;35.556;2022-09-13T09:36:45;98069.91;;;15.44;65.63
73338;BME280;61575;49.908;35.556;2022-09-13T09:39:57;98064.81;;;15.66;65.49
73338;BME280;61575;49.908;35.556;2022-09-13T09:43:18;98065.19;;;15.81;65.71
73338;BME280;61575;49.908;35.556;2022-09-13T09:46:26;98069.91;;;15.85;64.68
73338;BME280;61575;49.908;35.556;2022-09-13T09:49:38;98066.88;;;15.94;64.83
73338;BME280;61575;49.908;35.556;2022-09-13T09:53:11;98068.84;;;15.86;64.27
73338;BME280;61575;49.908;35.556;2022-09-13T09:56:29;98072.28;;;16.17;63.91
73338;BME280;61575;49.908;35.556;2022-09-13T09:59:33;98074.78;;;16.18;63.96
73338;BME280;61575;49.908;35.556;2022-09-13T10:02:36;98079.69;;;16.10;64.08
73338;BME280;61575;49.908;35.556;2022-09-13T10:05:45;98075.34;;;16.20;63.57
73338;BME280;61575;49.908;35.556;2022-09-13T10:08:59;98071.34;;;16.11;62.24
73338;BME280;61575;49.908;35.556;2022-09-13T10:12:02;98077.25;;;16.20;63.54
73338;BME280;61575;49.908;35.556;2022-09-13T10:15:16;98067.00;;;16.22;63.02
73338;BME280;61575;49.908;35.556;2022-09-13T10:18:24;98072.41;;;16.22;63.75
73338;BME280;61575;49.908;35.556;2022-09-13T10:21:58;98078.53;;;16.29;64.03
73338;BME280;61575;49.908;35.556;2022-09-13T10:25:25;98075.47;;;16.14;63.76
73338;BME280;61575;49.908;35.556;2022-09-13T10:28:29;98086.13;;;15.97;64.24
73338;BME280;61575;49.908;35.556;2022-09-13T10:31:35;98074.63;;;16.02;64.10
73338;BME280;61575;49.908;35.556;2022-09-13T10:34:41;98073.75;;;15.78;64.22
73338;BME280;61575;49.908;35.556;2022-09-13T10:37:45;98078.50;;;16.06;64.37
73338;BME280;61575;49.908;35.556;2022-09-13T10:40:47;98066.66;;;16.07;63.96
73338;BME280;61575;49.908;35.556;2022-09-13T10:43:56;98074.00;;;15.76;64.36
73338;BME280;61575;49.908;35.556;2022-09-13T10:47:05;98062.50;;;15.81;64.48
73338;BME280;61575;49.908;35.556;2022-09-13T10:50:20;98065.63;;;15.66;64.44
73338;BME280;61575;49.908;35.556;2022-09-13T10:53:39;98060.47;;;15.76;64.04
73338;BME280;61575;49.908;35.556;2022-09-13T10:56:42;98059.00;;;16.04;64.28
73338;BME280;61575;49.908;35.556;2022-09-13T10:59:51;98060.53;;;16.35;63.55
73338;BME280;61575;49.908;35.556;2022-09-13T11:20:29;98055.38;;;16.68;61.44
73338;BME280;61575;49.908;35.556;2022-09-13T11:23:40;98063.25;;;16.81;61.35
73338;BME280;61575;49.908;35.556;2022-09-13T11:30:24;98064.03;;;16.94;61.05
73338;BME280;61575;49.908;35.556;2022-09-13T11:33:58;98064.06;;;16.82;60.79
73338;BME280;61575;49.908;35.556;2022-09-13T11:44:10;98075.50;;;16.72;61.70
73338;BME280;61575;49.908;35.556;2022-09-13T11:48:17;98066.66;;;16.77;61.62
73338;BME280;61575;49.908;35.556;2022-09-13T11:50:54;98071.72;;;16.50;61.27
73338;BME280;61575;49.908;35.556;2022-09-13T11:54:40;98083.56;;;16.02;62.36
73338;BME280;61575;49.908;35.556;2022-09-13T11:57:46;98076.78;;;16.23;62.70
73338;BME280;61575;49.908;35.556;2022-09-13T12:00:54;98071.00;;;16.31;62.23
73338;BME280;61575;49.908;35.556;2022-09-13T12:04:06;98080.88;;;16.37;62.44
73338;BME280;61575;49.908;35.556;2022-09-13T12:13:58;98092.03;;;16.17;63.06
73338;BME280;61575;49.908;35.556;2022-09-13T12:17:34;98072.41;;;16.22;63.30
73338;BME280;61575;49.908;35.556;2022-09-13T12:20:35;98079.34;;;16.18;63.30
73338;BME280;61575;49.908;35.556;2022-09-13T12:23:45;98080.03;;;16.02;63.62
73338;BME280;61575;49.908;35.556;2022-09-13T12:30:13;98076.19;;;15.68;64.46
73338;BME280;61575;49.908;35.556;2022-09-13T12:33:16;98085.59;;;15.65;64.87
73338;BME280;61575;49.908;35.556;2022-09-13T12:40:07;98085.53;;;15.83;64.22
73338;BME280;61575;49.908;35.556;2022-09-13T12:50:04;98082.53;;;15.62;65.24
73338;BME280;61575;49.908;35.556;2022-09-13T13:04:09;98090.78;;;15.78;65.23
73338;BME280;61575;49.908;35.556;2022-09-13T13:07:19;98091.06;;;15.88;64.93
73338;BME280;61575;49.908;35.556;2022-09-13T13:10:26;98090.50;;;15.98;64.70
73338;BME280;61575;49.908;35.556;2022-09-13T13:13:55;98097.53;;;15.99;64.64
73338;BME280;61575;49.908;35.556;2022-09-13T13:23:47;98105.72;;;15.81;65.01
73338;BME280;61575;49.908;35.556;2022-09-13T13:27:36;98109.63;;;15.85;64.53
73338;BME280;61575;49.908;35.556;2022-09-13T13:30:45;98111.97;;;15.81;64.64
73338;BME280;61575;49.908;35.556;2022-09-13T13:40:23;98103.88;;;15.93;64.66
73338;BME280;61575;49.908;35.556;2022-09-13T13:43:33;98101.53;;;15.97;64.37
73338;BME280;61575;49.908;35.556;2022-09-13T13:46:35;98109.06;;;16.06;64.61
73338;BME280;61575;49.908;35.556;2022-09-13T13:52:54;98112.25;;;16.03;63.80
73338;BME280;61575;49.908;35.556;2022-09-13T13:56:34;98110.56;;;15.91;64.08
73338;BME280;61575;49.908;35.556;2022-09-13T13:59:47;98111.63;;;15.90;64.43
73338;BME280;61575;49.908;35.556;2022-09-13T14:03:04;98112.13;;;15.98;64.39
73338;BME280;61575;49.908;35.556;2022-09-13T14:09:40;98116.59;;;16.04;63.83
73338;BME280;61575;49.908;35.556;2022-09-13T14:12:53;98122.81;;;16.05;63.96
73338;BME280;61575;49.908;35.556;2022-09-13T14:19:28;98122.44;;;15.90;63.96
73338;BME280;61575;49.908;35.556;2022-09-13T14:22:31;98121.03;;;15.87;64.38
73338;BME280;61575;49.908;35.556;2022-09-13T14:25:33;98124.41;;;15.82;64.78
73338;BME280;61575;49.908;35.556;2022-09-13T14:28:35;98122.38;;;15.66;65.12
73338;BME280;61575;49.908;35.556;2022-09-13T14:31:37;98125.75;;;15.62;65.12
73338;BME280;61575;49.908;35.556;2022-09-13T14:34:50;98131.75;;;15.64;65.05
73338;BME280;61575;49.908;35.556;2022-09-13T14:37:54;98132.56;;;15.64;65.18
73338;BME280;61575;49.908;35.556;2022-09-13T14:40:59;98133.13;;;15.54;65.69
73338;BME280;61575;49.908;35.556;2022-09-13T14:44:21;98138.53;;;15.54;65.79
73338;BME280;61575;49.908;35.556;2022-09-13T14:47:38;98139.34;;;15.55;65.91
73338;BME280;61575;49.908;35.556;2022-09-13T14:50:55;98143.09;;;15.54;65.85
73338;BME280;61575;49.908;35.556;2022-09-13T14:54:09;98148.22;;;15.44;65.87
73338;BME280;61575;49.908;35.556;2022-09-13T14:57:40;98138.78;;;15.35;66.14
73338;BME280;61575;49.908;35.556;2022-09-13T15:01:05;98143.88;;;15.25;66.77
73338;BME280;61575;49.908;35.556;2022-09-13T15:04:09;98152.59;;;15.27;66.77
73338;BME280;61575;49.908;35.556;2022-09-13T15:07:29;98141.19;;;15.25;66.87
73338;BME280;61575;49.908;35.556;2022-09-13T15:10:32;98147.88;;;15.22;67.00
73338;BME280;61575;49.908;35.556;2022-09-13T15:13:43;98146.16;;;15.09;67.34
73338;BME280;61575;49.908;35.556;2022-09-13T15:16:50;98145.09;;;15.10;67.15
73338;BME280;61575;49.908;35.556;2022-09-13T15:20:03;98147.88;;;15.04;67.26
73338;BME280;61575;49.908;35.556;2022-09-13T15:23:10;98136.19;;;14.92;67.52
73338;BME280;61575;49.908;35.556;2022-09-13T15:26:24;98142.41;;;14.92;67.26
73338;BME280;61575;49.908;35.556;2022-09-13T15:29:26;98151.00;;;14.82;67.70
73338;BME280;61575;49.908;35.556;2022-09-13T15:32:33;98156.41;;;14.82;67.73
73338;BME280;61575;49.908;35.556;2022-09-13T15:41:58;98151.22;;;14.81;67.98
73338;BME280;61575;49.908;35.556;2022-09-13T15:45:01;98165.38;;;14.76;68.13
73338;BME280;61575;49.908;35.556;2022-09-13T15:48:03;98161.50;;;14.72;68.42
73338;BME280;61575;49.908;35.556;2022-09-13T15:51:12;98172.88;;;14.74;68.46
73338;BME280;61575;49.908;35.556;2022-09-13T15:54:16;98163.81;;;14.69;68.54
73338;BME280;61575;49.908;35.556;2022-09-13T15:57:26;98168.97;;;14.70;68.30
73338;BME280;61575;49.908;35.556;2022-09-13T16:00:28;98174.00;;;14.67;68.57
73338;BME280;61575;49.908;35.556;2022-09-13T16:03:31;98184.47;;;14.56;68.76
73338;BME280;61575;49.908;35.556;2022-09-13T16:06:35;98186.31;;;14.56;68.85
73338;BME280;61575;49.908;35.556;2022-09-13T16:09:37;98186.94;;;14.58;68.67
73338;BME280;61575;49.908;35.556;2022-09-13T16:12:40;98190.06;;;14.55;68.74
73338;BME280;61575;49.908;35.556;2022-09-13T16:15:42;98194.47;;;14.49;69.07
73338;BME280;61575;49.908;35.556;2022-09-13T16:18:44;98192.53;;;14.56;68.71
73338;BME280;61575;49.908;35.556;2022-09-13T16:21:47;98197.38;;;14.48;68.98
73338;BME280;61575;49.908;35.556;2022-09-13T16:24:50;98203.81;;;14.47;69.28
73338;BME280;61575;49.908;35.556;2022-09-13T16:27:52;98200.91;;;14.48;69.02
73338;BME280;61575;49.908;35.556;2022-09-13T16:30:55;98201.56;;;14.44;69.23
73338;BME280;61575;49.908;35.556;2022-09-13T16:33:58;98200.91;;;14.48;69.23
73338;BME280;61575;49.908;35.556;2022-09-13T16:37:00;98199.88;;;14.49;69.12
73338;BME280;61575;49.908;35.556;2022-09-13T16:40:03;98209.06;;;14.42;69.46
73338;BME280;61575;49.908;35.556;2022-09-13T16:43:06;98211.47;;;14.50;69.18
73338;BME280;61575;49.908;35.556;2022-09-13T16:46:09;98216.06;;;14.49;69.15
73338;BME280;61575;49.908;35.556;2022-09-13T16:49:12;98212.47;;;14.55;69.11
73338;BME280;61575;49.908;35.556;2022-09-13T16:52:14;98213.06;;;14.57;69.23
73338;BME280;61575;49.908;35.556;2022-09-13T16:55:17;98209.78;;;14.55;69.21
73338;BME280;61575;49.908;35.556;2022-09-13T16:58:19;98210.00;;;14.54;69.18
73338;BME280;61575;49.908;35.556;2022-09-13T17:01:25;98219.34;;;14.51;69.41
73338;BME280;61575;49.908;35.556;2022-09-13T17:04:28;98214.44;;;14.42;69.49
73338;BME280;61575;49.908;35.556;2022-09-13T17:07:32;98216.50;;;14.40;69.72
73338;BME280;61575;49.908;35.556;2022-09-13T17:10:36;98220.25;;;14.39;69.86
73338;BME280;61575;49.908;35.556;2022-09-13T17:13:42;98223.97;;;14.44;69.58
73338;BME280;61575;49.908;35.556;2022-09-13T17:16:51;98224.81;;;14.38;69.58
73338;BME280;61575;49.908;35.556;2022-09-13T17:19:53;98219.84;;;14.35;69.65
73338;BME280;61575;49.908;35.556;2022-09-13T17:22:56;98220.50;;;14.31;69.85
73338;BME280;61575;49.908;35.556;2022-09-13T17:26:03;98227.34;;;14.33;69.77
73338;BME280;61575;49.908;35.556;2022-09-13T17:29:06;98225.47;;;14.34;69.90
73338;BME280;61575;49.908;35.556;2022-09-13T17:32:11;98223.94;;;14.13;70.45
73338;BME280;61575;49.908;35.556;2022-09-13T17:35:14;98234.34;;;14.09;70.36
73338;BME280;61575;49.908;35.556;2022-09-13T17:38:21;98231.59;;;14.16;70.18
73338;BME280;61575;49.908;35.556;2022-09-13T17:41:26;98224.13;;;14.18;70.46
73338;BME280;61575;49.908;35.556;2022-09-13T17:44:28;98233.94;;;14.06;70.66
73338;BME280;61575;49.908;35.556;2022-09-13T17:47:30;98237.47;;;14.06;70.69
73338;BME280;61575;49.908;35.556;2022-09-13T17:50:34;98227.50;;;14.07;70.56
73338;BME280;61575;49.908;35.556;2022-09-13T17:53:37;98240.03;;;13.94;70.96
73338;BME280;61575;49.908;35.556;2022-09-13T17:56:45;98230.72;;;13.90;71.03
73338;BME280;61575;49.908;35.556;2022-09-13T17:59:47;98236.59;;;13.74;71.71
73338;BME280;61575;49.908;35.556;2022-09-13T18:02:50;98232.44;;;13.78;71.42
73338;BME280;61575;49.908;35.556;2022-09-13T18:05:57;98233.44;;;13.84;71.37
73338;BME280;61575;49.908;35.556;2022-09-13T18:09:00;98224.97;;;13.80;71.45
73338;BME280;61575;49.908;35.556;2022-09-13T18:12:16;98231.41;;;13.79;71.55
73338;BME280;61575;49.908;35.556;2022-09-13T18:15:22;98233.00;;;13.87;71.54
73338;BME280;61575;49.908;35.556;2022-09-13T18:18:27;98225.78;;;13.81;71.59
73338;BME280;61575;49.908;35.556;2022-09-13T18:21:31;98230.31;;;13.87;71.53
73338;BME280;61575;49.908;35.556;2022-09-13T18:24:38;98230.13;;;13.82;71.91
73338;BME280;61575;49.908;35.556;2022-09-13T18:27:41;98224.97;;;13.80;72.32
73338;BME280;61575;49.908;35.556;2022-09-13T18:30:51;98224.09;;;13.86;71.77
73338;BME280;61575;49.908;35.556;2022-09-13T18:33:59;98217.88;;;13.86;71.75
73338;BME280;61575;49.908;35.556;2022-09-13T18:37:06;98217.69;;;13.87;71.43
73338;BME280;61575;49.908;35.556;2022-09-13T18:40:09;98218.94;;;13.85;71.79
73338;BME280;61575;49.908;35.556;2022-09-13T18:43:20;98223.94;;;13.81;71.90
73338;BME280;61575;49.908;35.556;2022-09-13T18:46:26;98229.09;;;13.83;71.83
73338;BME280;61575;49.908;35.556;2022-09-13T18:49:31;98233.00;;;13.87;71.68
73338;BME280;61575;49.908;35.556;2022-09-13T18:52:33;98222.69;;;13.77;71.93
73338;BME280;61575;49.908;35.556;2022-09-13T18:55:36;98220.44;;;13.74;72.29